sensor_id;sensor_type;location;lat;lon;timestamp;P1;durP1;ratioP1;P2;durP2;ratioP2
62673;SDS011;62269;47.594;17.638;2023-04-03T00:00:11;8.05;;;6.62;;
62673;SDS011;62269;47.594;17.638;2023-04-03T00:00:59;7.37;;;6.68;;
62673;SDS011;62269;47.594;17.638;2023-04-03T00:01:46;9.10;;;7.35;;
62673;SDS011;62269;47.594;17.638;2023-04-03T00:02:33;9.52;;;7.57;;
62673;SDS011;62269;47.594;17.638;2023-04-03T00:03:20;8.02;;;7.22;;
62673;SDS011;62269;47.594;17.638;2023-04-03T00:04:07;7.75;;;6.80;;
62673;SDS011;62269;47.594;17.638;2023-04-03T00:04:55;9.25;;;7.15;;
62673;SDS011;62269;47.594;17.638;2023-04-03T00:05:42;8.25;;;7.12;;
62673;SDS011;62269;47.594;17.638;2023-04-03T00:06:29;8.35;;;7.25;;
62673;SDS011;62269;47.594;17.638;2023-04-03T00:07:16;8.32;;;7.47;;
62673;SDS011;62269;47.594;17.638;2023-04-03T00:08:03;8.48;;;7.65;;
62673;SDS011;62269;47.594;17.638;2023-04-03T00:08:51;7.87;;;7.07;;
62673;SDS011;62269;47.594;17.638;2023-04-03T00:09:38;9.13;;;7.30;;
62673;SDS011;62269;47.594;17.638;2023-04-03T00:10:25;8.35;;;7.50;;
62673;SDS011;62269;47.594;17.638;2023-04-03T00:11:12;8.75;;;7.78;;
62673;SDS011;62269;47.594;17.638;2023-04-03T00:11:59;9.18;;;7.82;;
62673;SDS011;62269;47.594;17.638;2023-04-03T00:12:47;8.65;;;7.85;;
62673;SDS011;62269;47.594;17.638;2023-04-03T00:13:34;9.15;;;8.20;;
62673;SDS011;62269;47.594;17.638;2023-04-03T00:14:21;8.95;;;7.90;;
62673;SDS011;62269;47.594;17.638;2023-04-03T00:15:08;8.68;;;7.65;;
62673;SDS011;62269;47.594;17.638;2023-04-03T00:15:56;8.82;;;7.85;;
62673;SDS011;62269;47.594;17.638;2023-04-03T00:16:43;9.30;;;8.40;;
62673;SDS011;62269;47.594;17.638;2023-04-03T00:17:30;8.40;;;7.30;;
62673;SDS011;62269;47.594;17.638;2023-04-03T00:18:17;8.85;;;7.95;;
62673;SDS011;62269;47.594;17.638;2023-04-03T00:19:04;8.38;;;7.32;;
62673;SDS011;62269;47.594;17.638;2023-04-03T00:19:52;8.55;;;7.40;;
62673;SDS011;62269;47.594;17.638;2023-04-03T00:20:39;8.70;;;7.80;;
62673;SDS011;62269;47.594;17.638;2023-04-03T00:21:26;9.55;;;8.18;;
62673;SDS011;62269;47.594;17.638;2023-04-03T00:22:13;8.32;;;7.47;;
62673;SDS011;62269;47.594;17.638;2023-04-03T00:23:00;8.85;;;7.18;;
62673;SDS011;62269;47.594;17.638;2023-04-03T00:23:47;9.25;;;8.15;;
62673;SDS011;62269;47.594;17.638;2023-04-03T00:24:35;8.65;;;7.68;;
62673;SDS011;62269;47.594;17.638;2023-04-03T00:25:22;8.52;;;7.65;;
62673;SDS011;62269;47.594;17.638;2023-04-03T00:26:09;8.65;;;7.85;;
62673;SDS011;62269;47.594;17.638;2023-04-03T00:26:56;8.65;;;7.80;;
62673;SDS011;62269;47.594;17.638;2023-04-03T00:27:43;9.15;;;8.25;;
62673;SDS011;62269;47.594;17.638;2023-04-03T00:28:30;8.32;;;7.53;;
62673;SDS011;62269;47.594;17.638;2023-04-03T00:29:17;10.15;;;7.90;;
62673;SDS011;62269;47.594;17.638;2023-04-03T00:30:05;8.35;;;7.50;;
62673;SDS011;62269;47.594;17.638;2023-04-03T00:30:53;8.57;;;7.65;;
62673;SDS011;62269;47.594;17.638;2023-04-03T00:31:40;9.48;;;7.78;;
62673;SDS011;62269;47.594;17.638;2023-04-03T00:32:27;8.73;;;7.82;;
62673;SDS011;62269;47.594;17.638;2023-04-03T00:33:14;8.63;;;7.68;;
62673;SDS011;62269;47.594;17.638;2023-04-03T00:34:01;8.82;;;7.53;;
62673;SDS011;62269;47.594;17.638;2023-04-03T00:34:48;9.50;;;8.10;;
62673;SDS011;62269;47.594;17.638;2023-04-03T00:35:35;9.13;;;7.70;;
62673;SDS011;62269;47.594;17.638;2023-04-03T00:36:23;8.75;;;7.85;;
62673;SDS011;62269;47.594;17.638;2023-04-03T00:37:10;9.00;;;7.65;;
62673;SDS011;62269;47.594;17.638;2023-04-03T00:37:57;9.15;;;8.25;;
62673;SDS011;62269;47.594;17.638;2023-04-03T00:38:44;8.90;;;8.00;;
62673;SDS011;62269;47.594;17.638;2023-04-03T00:39:31;8.80;;;7.90;;
62673;SDS011;62269;47.594;17.638;2023-04-03T00:40:19;9.15;;;7.93;;
62673;SDS011;62269;47.594;17.638;2023-04-03T00:41:07;8.85;;;7.82;;
62673;SDS011;62269;47.594;17.638;2023-04-03T00:41:54;8.40;;;7.60;;
62673;SDS011;62269;47.594;17.638;2023-04-03T00:42:42;8.80;;;7.93;;
62673;SDS011;62269;47.594;17.638;2023-04-03T00:43:29;9.32;;;8.40;;
62673;SDS011;62269;47.594;17.638;2023-04-03T00:44:20;9.25;;;8.32;;
62673;SDS011;62269;47.594;17.638;2023-04-03T00:45:27;9.32;;;7.95;;
62673;SDS011;62269;47.594;17.638;2023-04-03T00:46:24;10.43;;;8.00;;
62673;SDS011;62269;47.594;17.638;2023-04-03T00:47:12;9.10;;;8.15;;
62673;SDS011;62269;47.594;17.638;2023-04-03T00:48:01;9.07;;;7.95;;
62673;SDS011;62269;47.594;17.638;2023-04-03T00:48:52;9.25;;;7.95;;
62673;SDS011;62269;47.594;17.638;2023-04-03T00:49:39;8.45;;;7.57;;
62673;SDS011;62269;47.594;17.638;2023-04-03T00:50:27;9.52;;;7.87;;
62673;SDS011;62269;47.594;17.638;2023-04-03T00:51:16;8.57;;;7.68;;
62673;SDS011;62269;47.594;17.638;2023-04-03T00:52:13;9.10;;;8.07;;
62673;SDS011;62269;47.594;17.638;2023-04-03T00:53:03;9.38;;;8.20;;
62673;SDS011;62269;47.594;17.638;2023-04-03T00:53:53;8.40;;;7.47;;
62673;SDS011;62269;47.594;17.638;2023-04-03T00:54:42;8.48;;;7.57;;
62673;SDS011;62269;47.594;17.638;2023-04-03T00:55:30;8.90;;;8.00;;
62673;SDS011;62269;47.594;17.638;2023-04-03T00:56:19;8.05;;;7.25;;
62673;SDS011;62269;47.594;17.638;2023-04-03T00:57:08;9.50;;;8.20;;
62673;SDS011;62269;47.594;17.638;2023-04-03T00:57:55;8.70;;;7.80;;
62673;SDS011;62269;47.594;17.638;2023-04-03T00:58:44;9.10;;;8.20;;
62673;SDS011;62269;47.594;17.638;2023-04-03T00:59:44;9.02;;;7.82;;
62673;SDS011;62269;47.594;17.638;2023-04-03T01:00:36;9.88;;;8.10;;
62673;SDS011;62269;47.594;17.638;2023-04-03T01:01:26;8.73;;;7.43;;
62673;SDS011;62269;47.594;17.638;2023-04-03T01:02:14;8.38;;;7.47;;
62673;SDS011;62269;47.594;17.638;2023-04-03T01:03:01;9.10;;;7.78;;
62673;SDS011;62269;47.594;17.638;2023-04-03T01:03:49;8.45;;;7.55;;
62673;SDS011;62269;47.594;17.638;2023-04-03T01:04:41;8.63;;;7.50;;
62673;SDS011;62269;47.594;17.638;2023-04-03T01:05:29;9.20;;;7.47;;
62673;SDS011;62269;47.594;17.638;2023-04-03T01:06:17;8.48;;;7.65;;
62673;SDS011;62269;47.594;17.638;2023-04-03T01:07:28;8.45;;;7.65;;
62673;SDS011;62269;47.594;17.638;2023-04-03T01:08:16;7.85;;;7.05;;
62673;SDS011;62269;47.594;17.638;2023-04-03T01:09:03;8.25;;;7.40;;
62673;SDS011;62269;47.594;17.638;2023-04-03T01:09:52;8.27;;;7.43;;
62673;SDS011;62269;47.594;17.638;2023-04-03T01:10:43;8.50;;;7.60;;
62673;SDS011;62269;47.594;17.638;2023-04-03T01:11:30;8.48;;;7.57;;
62673;SDS011;62269;47.594;17.638;2023-04-03T01:12:24;8.15;;;7.35;;
62673;SDS011;62269;47.594;17.638;2023-04-03T01:13:20;7.68;;;6.82;;
62673;SDS011;62269;47.594;17.638;2023-04-03T01:14:10;8.13;;;7.30;;
62673;SDS011;62269;47.594;17.638;2023-04-03T01:15:04;8.00;;;7.20;;
62673;SDS011;62269;47.594;17.638;2023-04-03T01:16:04;9.27;;;7.28;;
62673;SDS011;62269;47.594;17.638;2023-04-03T01:16:53;8.48;;;7.37;;
62673;SDS011;62269;47.594;17.638;2023-04-03T01:18:31;8.25;;;7.32;;
62673;SDS011;62269;47.594;17.638;2023-04-03T01:19:19;8.35;;;7.15;;
62673;SDS011;62269;47.594;17.638;2023-04-03T01:21:47;8.18;;;7.37;;
62673;SDS011;62269;47.594;17.638;2023-04-03T01:22:44;9.30;;;7.22;;
62673;SDS011;62269;47.594;17.638;2023-04-03T01:24:39;8.82;;;7.60;;
62673;SDS011;62269;47.594;17.638;2023-04-03T01:25:26;7.50;;;6.80;;
62673;SDS011;62269;47.594;17.638;2023-04-03T01:26:13;7.93;;;7.12;;
62673;SDS011;62269;47.594;17.638;2023-04-03T01:27:01;8.85;;;7.50;;
62673;SDS011;62269;47.594;17.638;2023-04-03T01:27:50;8.63;;;7.70;;
62673;SDS011;62269;47.594;17.638;2023-04-03T01:28:37;7.55;;;6.85;;
62673;SDS011;62269;47.594;17.638;2023-04-03T01:29:24;7.70;;;7.00;;
62673;SDS011;62269;47.594;17.638;2023-04-03T01:30:11;6.97;;;6.28;;
62673;SDS011;62269;47.594;17.638;2023-04-03T01:31:58;7.82;;;6.97;;
62673;SDS011;62269;47.594;17.638;2023-04-03T01:32:46;7.72;;;6.68;;
62673;SDS011;62269;47.594;17.638;2023-04-03T01:33:34;7.03;;;6.32;;
62673;SDS011;62269;47.594;17.638;2023-04-03T01:34:22;7.25;;;6.43;;
62673;SDS011;62269;47.594;17.638;2023-04-03T01:35:10;7.20;;;6.50;;
62673;SDS011;62269;47.594;17.638;2023-04-03T01:35:57;7.62;;;6.93;;
62673;SDS011;62269;47.594;17.638;2023-04-03T01:36:44;7.03;;;6.15;;
62673;SDS011;62269;47.594;17.638;2023-04-03T01:37:31;7.57;;;6.75;;
62673;SDS011;62269;47.594;17.638;2023-04-03T01:38:18;6.70;;;6.00;;
62673;SDS011;62269;47.594;17.638;2023-04-03T01:39:05;7.10;;;6.40;;
62673;SDS011;62269;47.594;17.638;2023-04-03T01:39:53;7.75;;;6.28;;
62673;SDS011;62269;47.594;17.638;2023-04-03T01:40:40;8.02;;;6.68;;
62673;SDS011;62269;47.594;17.638;2023-04-03T01:41:27;6.75;;;6.03;;
62673;SDS011;62269;47.594;17.638;2023-04-03T01:42:15;6.32;;;5.53;;
62673;SDS011;62269;47.594;17.638;2023-04-03T01:43:02;6.75;;;6.10;;
62673;SDS011;62269;47.594;17.638;2023-04-03T01:43:49;6.37;;;5.72;;
62673;SDS011;62269;47.594;17.638;2023-04-03T01:44:36;7.37;;;6.50;;
62673;SDS011;62269;47.594;17.638;2023-04-03T01:45:23;6.37;;;5.70;;
62673;SDS011;62269;47.594;17.638;2023-04-03T01:46:11;6.47;;;5.87;;
62673;SDS011;62269;47.594;17.638;2023-04-03T01:46:58;6.97;;;5.50;;
62673;SDS011;62269;47.594;17.638;2023-04-03T01:47:45;6.10;;;5.50;;
62673;SDS011;62269;47.594;17.638;2023-04-03T01:48:32;6.43;;;5.47;;
62673;SDS011;62269;47.594;17.638;2023-04-03T01:49:19;7.25;;;6.05;;
62673;SDS011;62269;47.594;17.638;2023-04-03T01:50:06;6.20;;;5.50;;
62673;SDS011;62269;47.594;17.638;2023-04-03T01:50:54;5.93;;;5.32;;
62673;SDS011;62269;47.594;17.638;2023-04-03T01:51:41;5.85;;;5.25;;
62673;SDS011;62269;47.594;17.638;2023-04-03T01:52:28;6.53;;;5.80;;
62673;SDS011;62269;47.594;17.638;2023-04-03T01:53:15;6.18;;;5.37;;
62673;SDS011;62269;47.594;17.638;2023-04-03T01:54:02;6.55;;;5.70;;
62673;SDS011;62269;47.594;17.638;2023-04-03T01:54:49;6.10;;;5.50;;
62673;SDS011;62269;47.594;17.638;2023-04-03T01:55:37;6.50;;;5.80;;
62673;SDS011;62269;47.594;17.638;2023-04-03T01:56:24;5.85;;;5.25;;
62673;SDS011;62269;47.594;17.638;2023-04-03T01:57:11;6.47;;;5.75;;
62673;SDS011;62269;47.594;17.638;2023-04-03T01:58:00;5.93;;;5.28;;
62673;SDS011;62269;47.594;17.638;2023-04-03T01:58:47;5.87;;;5.22;;
62673;SDS011;62269;47.594;17.638;2023-04-03T01:59:33;6.15;;;5.30;;
62673;SDS011;62269;47.594;17.638;2023-04-03T02:00:21;5.93;;;5.32;;
62673;SDS011;62269;47.594;17.638;2023-04-03T02:01:08;6.07;;;5.47;;
62673;SDS011;62269;47.594;17.638;2023-04-03T02:01:55;5.85;;;5.25;;
62673;SDS011;62269;47.594;17.638;2023-04-03T02:02:42;7.15;;;5.55;;
62673;SDS011;62269;47.594;17.638;2023-04-03T02:03:29;5.82;;;4.85;;
62673;SDS011;62269;47.594;17.638;2023-04-03T02:04:17;7.03;;;5.60;;
62673;SDS011;62269;47.594;17.638;2023-04-03T02:05:04;5.97;;;5.37;;
62673;SDS011;62269;47.594;17.638;2023-04-03T02:05:51;6.20;;;4.95;;
62673;SDS011;62269;47.594;17.638;2023-04-03T02:06:39;6.22;;;5.32;;
62673;SDS011;62269;47.594;17.638;2023-04-03T02:07:26;5.90;;;5.30;;
62673;SDS011;62269;47.594;17.638;2023-04-03T02:08:13;6.43;;;5.80;;
62673;SDS011;62269;47.594;17.638;2023-04-03T02:09:00;6.10;;;5.32;;
62673;SDS011;62269;47.594;17.638;2023-04-03T02:09:47;5.90;;;5.30;;
62673;SDS011;62269;47.594;17.638;2023-04-03T02:10:34;6.85;;;5.72;;
62673;SDS011;62269;47.594;17.638;2023-04-03T02:11:22;7.30;;;5.87;;
62673;SDS011;62269;47.594;17.638;2023-04-03T02:12:09;6.62;;;5.90;;
62673;SDS011;62269;47.594;17.638;2023-04-03T02:12:56;6.20;;;5.60;;
62673;SDS011;62269;47.594;17.638;2023-04-03T02:13:43;6.53;;;5.40;;
62673;SDS011;62269;47.594;17.638;2023-04-03T02:14:30;6.80;;;6.10;;
62673;SDS011;62269;47.594;17.638;2023-04-03T02:15:17;6.72;;;5.85;;
62673;SDS011;62269;47.594;17.638;2023-04-03T02:16:08;7.97;;;6.22;;
62673;SDS011;62269;47.594;17.638;2023-04-03T02:16:56;6.40;;;5.75;;
62673;SDS011;62269;47.594;17.638;2023-04-03T02:17:43;6.12;;;5.53;;
62673;SDS011;62269;47.594;17.638;2023-04-03T02:18:31;6.57;;;5.85;;
62673;SDS011;62269;47.594;17.638;2023-04-03T02:19:18;6.28;;;5.65;;
62673;SDS011;62269;47.594;17.638;2023-04-03T02:20:05;5.97;;;5.37;;
62673;SDS011;62269;47.594;17.638;2023-04-03T02:20:53;6.35;;;5.70;;
62673;SDS011;62269;47.594;17.638;2023-04-03T02:21:40;7.32;;;6.28;;
62673;SDS011;62269;47.594;17.638;2023-04-03T02:22:27;6.93;;;6.05;;
62673;SDS011;62269;47.594;17.638;2023-04-03T02:23:14;7.90;;;6.05;;
62673;SDS011;62269;47.594;17.638;2023-04-03T02:24:01;6.68;;;5.82;;
62673;SDS011;62269;47.594;17.638;2023-04-03T02:24:48;6.28;;;5.65;;
62673;SDS011;62269;47.594;17.638;2023-04-03T02:25:35;7.10;;;6.12;;
62673;SDS011;62269;47.594;17.638;2023-04-03T02:26:24;6.60;;;5.85;;
62673;SDS011;62269;47.594;17.638;2023-04-03T02:27:12;7.50;;;6.30;;
62673;SDS011;62269;47.594;17.638;2023-04-03T02:27:59;7.05;;;6.00;;
62673;SDS011;62269;47.594;17.638;2023-04-03T02:28:46;7.68;;;6.85;;
62673;SDS011;62269;47.594;17.638;2023-04-03T02:29:34;6.78;;;5.80;;
62673;SDS011;62269;47.594;17.638;2023-04-03T02:30:21;9.70;;;6.35;;
62673;SDS011;62269;47.594;17.638;2023-04-03T02:31:08;6.90;;;6.20;;
62673;SDS011;62269;47.594;17.638;2023-04-03T02:31:56;6.85;;;5.70;;
62673;SDS011;62269;47.594;17.638;2023-04-03T02:32:43;8.35;;;6.10;;
62673;SDS011;62269;47.594;17.638;2023-04-03T02:33:30;6.57;;;5.87;;
62673;SDS011;62269;47.594;17.638;2023-04-03T02:34:17;8.02;;;6.37;;
62673;SDS011;62269;47.594;17.638;2023-04-03T02:35:05;7.65;;;6.50;;
62673;SDS011;62269;47.594;17.638;2023-04-03T02:35:53;8.23;;;6.12;;
62673;SDS011;62269;47.594;17.638;2023-04-03T02:36:41;7.18;;;6.28;;
62673;SDS011;62269;47.594;17.638;2023-04-03T02:37:29;7.30;;;6.50;;
62673;SDS011;62269;47.594;17.638;2023-04-03T02:38:16;6.75;;;6.05;;
62673;SDS011;62269;47.594;17.638;2023-04-03T02:39:03;8.40;;;7.12;;
62673;SDS011;62269;47.594;17.638;2023-04-03T02:39:50;6.85;;;6.15;;
62673;SDS011;62269;47.594;17.638;2023-04-03T02:40:37;6.85;;;6.15;;
62673;SDS011;62269;47.594;17.638;2023-04-03T02:41:25;6.90;;;6.20;;
62673;SDS011;62269;47.594;17.638;2023-04-03T02:42:18;6.47;;;5.87;;
62673;SDS011;62269;47.594;17.638;2023-04-03T02:43:05;7.53;;;6.37;;
62673;SDS011;62269;47.594;17.638;2023-04-03T02:43:52;8.45;;;6.72;;
62673;SDS011;62269;47.594;17.638;2023-04-03T02:44:40;7.62;;;6.65;;
62673;SDS011;62269;47.594;17.638;2023-04-03T02:45:27;6.62;;;6.03;;
62673;SDS011;62269;47.594;17.638;2023-04-03T02:46:14;6.97;;;6.28;;
62673;SDS011;62269;47.594;17.638;2023-04-03T02:47:02;6.78;;;6.15;;
62673;SDS011;62269;47.594;17.638;2023-04-03T02:47:49;7.00;;;6.30;;
62673;SDS011;62269;47.594;17.638;2023-04-03T02:48:36;7.07;;;6.37;;
62673;SDS011;62269;47.594;17.638;2023-04-03T02:49:24;7.12;;;6.43;;
62673;SDS011;62269;47.594;17.638;2023-04-03T02:50:11;7.43;;;6.70;;
62673;SDS011;62269;47.594;17.638;2023-04-03T02:50:58;8.05;;;6.62;;
62673;SDS011;62269;47.594;17.638;2023-04-03T02:51:45;7.45;;;6.68;;
62673;SDS011;62269;47.594;17.638;2023-04-03T02:52:32;7.55;;;6.75;;
62673;SDS011;62269;47.594;17.638;2023-04-03T02:53:19;7.47;;;6.57;;
62673;SDS011;62269;47.594;17.638;2023-04-03T02:54:06;7.18;;;6.10;;
62673;SDS011;62269;47.594;17.638;2023-04-03T02:54:54;6.78;;;6.10;;
62673;SDS011;62269;47.594;17.638;2023-04-03T02:55:41;7.05;;;6.25;;
62673;SDS011;62269;47.594;17.638;2023-04-03T02:56:28;7.00;;;6.30;;
62673;SDS011;62269;47.594;17.638;2023-04-03T02:57:15;7.35;;;6.55;;
62673;SDS011;62269;47.594;17.638;2023-04-03T02:58:02;7.18;;;6.45;;
62673;SDS011;62269;47.594;17.638;2023-04-03T02:58:50;7.05;;;6.35;;
62673;SDS011;62269;47.594;17.638;2023-04-03T02:59:37;7.25;;;6.53;;
62673;SDS011;62269;47.594;17.638;2023-04-03T03:00:26;8.82;;;6.53;;
62673;SDS011;62269;47.594;17.638;2023-04-03T03:01:13;7.45;;;6.72;;
62673;SDS011;62269;47.594;17.638;2023-04-03T03:02:01;8.02;;;7.22;;
62673;SDS011;62269;47.594;17.638;2023-04-03T03:02:48;9.13;;;6.50;;
62673;SDS011;62269;47.594;17.638;2023-04-03T03:03:35;8.20;;;7.35;;
62673;SDS011;62269;47.594;17.638;2023-04-03T03:04:22;7.40;;;6.62;;
62673;SDS011;62269;47.594;17.638;2023-04-03T03:05:09;7.62;;;6.70;;
62673;SDS011;62269;47.594;17.638;2023-04-03T03:06:00;7.30;;;6.47;;
62673;SDS011;62269;47.594;17.638;2023-04-03T03:06:55;7.47;;;6.68;;
62673;SDS011;62269;47.594;17.638;2023-04-03T03:07:42;7.30;;;6.50;;
62673;SDS011;62269;47.594;17.638;2023-04-03T03:08:29;7.45;;;6.65;;
62673;SDS011;62269;47.594;17.638;2023-04-03T03:09:16;7.43;;;6.72;;
62673;SDS011;62269;47.594;17.638;2023-04-03T03:10:03;9.38;;;6.80;;
62673;SDS011;62269;47.594;17.638;2023-04-03T03:10:51;7.82;;;6.47;;
62673;SDS011;62269;47.594;17.638;2023-04-03T03:11:38;7.97;;;7.18;;
62673;SDS011;62269;47.594;17.638;2023-04-03T03:12:25;7.82;;;7.03;;
62673;SDS011;62269;47.594;17.638;2023-04-03T03:13:12;9.18;;;6.97;;
62673;SDS011;62269;47.594;17.638;2023-04-03T03:13:59;7.80;;;7.03;;
62673;SDS011;62269;47.594;17.638;2023-04-03T03:14:47;8.57;;;6.97;;
62673;SDS011;62269;47.594;17.638;2023-04-03T03:15:34;8.43;;;7.45;;
62673;SDS011;62269;47.594;17.638;2023-04-03T03:16:21;7.40;;;6.65;;
62673;SDS011;62269;47.594;17.638;2023-04-03T03:17:08;8.15;;;7.12;;
62673;SDS011;62269;47.594;17.638;2023-04-03T03:17:55;7.80;;;7.00;;
62673;SDS011;62269;47.594;17.638;2023-04-03T03:18:42;7.80;;;7.00;;
62673;SDS011;62269;47.594;17.638;2023-04-03T03:19:29;7.75;;;7.00;;
62673;SDS011;62269;47.594;17.638;2023-04-03T03:20:16;7.45;;;6.62;;
62673;SDS011;62269;47.594;17.638;2023-04-03T03:21:04;7.78;;;6.85;;
62673;SDS011;62269;47.594;17.638;2023-04-03T03:21:51;8.30;;;7.45;;
62673;SDS011;62269;47.594;17.638;2023-04-03T03:22:38;7.72;;;6.95;;
62673;SDS011;62269;47.594;17.638;2023-04-03T03:23:26;7.57;;;6.87;;
62673;SDS011;62269;47.594;17.638;2023-04-03T03:24:14;7.50;;;6.70;;
62673;SDS011;62269;47.594;17.638;2023-04-03T03:25:02;8.23;;;6.97;;
62673;SDS011;62269;47.594;17.638;2023-04-03T03:25:53;8.13;;;7.10;;
62673;SDS011;62269;47.594;17.638;2023-04-03T03:26:42;7.50;;;6.70;;
62673;SDS011;62269;47.594;17.638;2023-04-03T03:27:29;8.18;;;7.32;;
62673;SDS011;62269;47.594;17.638;2023-04-03T03:28:16;9.02;;;7.62;;
62673;SDS011;62269;47.594;17.638;2023-04-03T03:29:03;9.80;;;7.85;;
62673;SDS011;62269;47.594;17.638;2023-04-03T03:29:50;8.75;;;7.12;;
62673;SDS011;62269;47.594;17.638;2023-04-03T03:30:37;8.57;;;7.15;;
62673;SDS011;62269;47.594;17.638;2023-04-03T03:31:24;8.07;;;7.28;;
62673;SDS011;62269;47.594;17.638;2023-04-03T03:32:11;7.80;;;7.00;;
62673;SDS011;62269;47.594;17.638;2023-04-03T03:32:59;7.80;;;7.00;;
62673;SDS011;62269;47.594;17.638;2023-04-03T03:33:46;7.80;;;7.03;;
62673;SDS011;62269;47.594;17.638;2023-04-03T03:34:33;8.93;;;8.00;;
62673;SDS011;62269;47.594;17.638;2023-04-03T03:35:20;8.00;;;6.65;;
62673;SDS011;62269;47.594;17.638;2023-04-03T03:36:07;7.60;;;6.80;;
62673;SDS011;62269;47.594;17.638;2023-04-03T03:36:54;7.47;;;6.70;;
62673;SDS011;62269;47.594;17.638;2023-04-03T03:37:41;7.97;;;7.18;;
62673;SDS011;62269;47.594;17.638;2023-04-03T03:38:28;8.07;;;7.28;;
62673;SDS011;62269;47.594;17.638;2023-04-03T03:39:16;8.25;;;7.18;;
62673;SDS011;62269;47.594;17.638;2023-04-03T03:40:04;7.70;;;6.90;;
62673;SDS011;62269;47.594;17.638;2023-04-03T03:40:52;8.55;;;6.78;;
62673;SDS011;62269;47.594;17.638;2023-04-03T03:41:39;7.43;;;6.62;;
62673;SDS011;62269;47.594;17.638;2023-04-03T03:42:26;8.27;;;6.87;;
62673;SDS011;62269;47.594;17.638;2023-04-03T03:43:13;7.20;;;6.50;;
62673;SDS011;62269;47.594;17.638;2023-04-03T03:44:00;8.18;;;7.32;;
62673;SDS011;62269;47.594;17.638;2023-04-03T03:44:47;8.45;;;7.20;;
62673;SDS011;62269;47.594;17.638;2023-04-03T03:45:34;7.93;;;7.12;;
62673;SDS011;62269;47.594;17.638;2023-04-03T03:46:21;7.78;;;6.97;;
62673;SDS011;62269;47.594;17.638;2023-04-03T03:47:08;8.15;;;6.93;;
62673;SDS011;62269;47.594;17.638;2023-04-03T03:47:57;8.98;;;7.35;;
62673;SDS011;62269;47.594;17.638;2023-04-03T03:48:44;7.80;;;7.00;;
62673;SDS011;62269;47.594;17.638;2023-04-03T03:49:31;7.68;;;6.87;;
62673;SDS011;62269;47.594;17.638;2023-04-03T03:50:18;7.40;;;6.70;;
62673;SDS011;62269;47.594;17.638;2023-04-03T03:51:05;8.07;;;7.18;;
62673;SDS011;62269;47.594;17.638;2023-04-03T03:51:52;9.02;;;7.50;;
62673;SDS011;62269;47.594;17.638;2023-04-03T03:52:39;8.98;;;6.93;;
62673;SDS011;62269;47.594;17.638;2023-04-03T03:53:26;7.72;;;6.82;;
62673;SDS011;62269;47.594;17.638;2023-04-03T03:54:14;8.23;;;6.97;;
62673;SDS011;62269;47.594;17.638;2023-04-03T03:55:01;7.22;;;6.50;;
62673;SDS011;62269;47.594;17.638;2023-04-03T03:55:48;7.25;;;6.50;;
62673;SDS011;62269;47.594;17.638;2023-04-03T03:56:35;8.68;;;6.62;;
62673;SDS011;62269;47.594;17.638;2023-04-03T03:57:22;7.15;;;6.45;;
62673;SDS011;62269;47.594;17.638;2023-04-03T03:58:09;7.62;;;6.82;;
62673;SDS011;62269;47.594;17.638;2023-04-03T03:58:57;7.53;;;6.18;;
62673;SDS011;62269;47.594;17.638;2023-04-03T03:59:44;7.50;;;6.80;;
62673;SDS011;62269;47.594;17.638;2023-04-03T04:00:31;9.07;;;6.87;;
62673;SDS011;62269;47.594;17.638;2023-04-03T04:01:17;7.50;;;6.72;;
62673;SDS011;62269;47.594;17.638;2023-04-03T04:02:04;7.50;;;6.70;;
62673;SDS011;62269;47.594;17.638;2023-04-03T04:02:52;7.72;;;6.57;;
62673;SDS011;62269;47.594;17.638;2023-04-03T04:03:40;7.43;;;6.62;;
62673;SDS011;62269;47.594;17.638;2023-04-03T04:04:28;7.90;;;7.10;;
62673;SDS011;62269;47.594;17.638;2023-04-03T04:05:15;8.05;;;7.22;;
62673;SDS011;62269;47.594;17.638;2023-04-03T04:06:02;7.75;;;6.90;;
62673;SDS011;62269;47.594;17.638;2023-04-03T04:06:49;7.22;;;6.53;;
62673;SDS011;62269;47.594;17.638;2023-04-03T04:07:37;7.78;;;6.95;;
62673;SDS011;62269;47.594;17.638;2023-04-03T04:08:24;7.28;;;6.55;;
62673;SDS011;62269;47.594;17.638;2023-04-03T04:09:11;7.90;;;7.07;;
62673;SDS011;62269;47.594;17.638;2023-04-03T04:09:58;9.20;;;6.80;;
62673;SDS011;62269;47.594;17.638;2023-04-03T04:10:45;7.95;;;6.97;;
62673;SDS011;62269;47.594;17.638;2023-04-03T04:11:32;7.90;;;6.85;;
62673;SDS011;62269;47.594;17.638;2023-04-03T04:12:19;7.62;;;6.82;;
62673;SDS011;62269;47.594;17.638;2023-04-03T04:13:07;7.37;;;6.68;;
62673;SDS011;62269;47.594;17.638;2023-04-03T04:13:54;7.95;;;6.45;;
62673;SDS011;62269;47.594;17.638;2023-04-03T04:14:41;7.72;;;6.93;;
62673;SDS011;62269;47.594;17.638;2023-04-03T04:15:28;7.00;;;6.30;;
62673;SDS011;62269;47.594;17.638;2023-04-03T04:16:15;7.12;;;6.25;;
62673;SDS011;62269;47.594;17.638;2023-04-03T04:17:03;7.85;;;6.87;;
62673;SDS011;62269;47.594;17.638;2023-04-03T04:17:50;8.10;;;7.28;;
62673;SDS011;62269;47.594;17.638;2023-04-03T04:18:37;8.18;;;7.10;;
62673;SDS011;62269;47.594;17.638;2023-04-03T04:19:24;8.13;;;7.05;;
62673;SDS011;62269;47.594;17.638;2023-04-03T04:20:11;7.68;;;6.80;;
62673;SDS011;62269;47.594;17.638;2023-04-03T04:20:58;7.93;;;6.97;;
62673;SDS011;62269;47.594;17.638;2023-04-03T04:21:46;7.68;;;6.97;;
62673;SDS011;62269;47.594;17.638;2023-04-03T04:22:33;7.97;;;7.18;;
62673;SDS011;62269;47.594;17.638;2023-04-03T04:23:20;8.30;;;7.18;;
62673;SDS011;62269;47.594;17.638;2023-04-03T04:24:07;7.78;;;6.97;;
62673;SDS011;62269;47.594;17.638;2023-04-03T04:24:54;8.05;;;7.25;;
62673;SDS011;62269;47.594;17.638;2023-04-03T04:25:43;8.10;;;7.30;;
62673;SDS011;62269;47.594;17.638;2023-04-03T04:26:31;7.85;;;7.05;;
62673;SDS011;62269;47.594;17.638;2023-04-03T04:27:18;8.52;;;7.55;;
62673;SDS011;62269;47.594;17.638;2023-04-03T04:28:06;8.13;;;6.82;;
62673;SDS011;62269;47.594;17.638;2023-04-03T04:28:53;9.38;;;7.03;;
62673;SDS011;62269;47.594;17.638;2023-04-03T04:29:40;8.20;;;7.40;;
62673;SDS011;62269;47.594;17.638;2023-04-03T04:30:27;8.10;;;7.03;;
62673;SDS011;62269;47.594;17.638;2023-04-03T04:31:14;7.70;;;7.00;;
62673;SDS011;62269;47.594;17.638;2023-04-03T04:32:02;7.75;;;6.95;;
62673;SDS011;62269;47.594;17.638;2023-04-03T04:32:50;8.90;;;6.82;;
62673;SDS011;62269;47.594;17.638;2023-04-03T04:33:37;8.23;;;7.43;;
62673;SDS011;62269;47.594;17.638;2023-04-03T04:34:24;8.20;;;7.30;;
62673;SDS011;62269;47.594;17.638;2023-04-03T04:35:11;8.80;;;7.32;;
62673;SDS011;62269;47.594;17.638;2023-04-03T04:36:02;8.05;;;7.25;;
62673;SDS011;62269;47.594;17.638;2023-04-03T04:36:49;7.62;;;6.68;;
62673;SDS011;62269;47.594;17.638;2023-04-03T04:37:36;8.05;;;7.25;;
62673;SDS011;62269;47.594;17.638;2023-04-03T04:38:23;8.35;;;7.20;;
62673;SDS011;62269;47.594;17.638;2023-04-03T04:39:10;8.32;;;7.43;;
62673;SDS011;62269;47.594;17.638;2023-04-03T04:39:57;8.80;;;7.93;;
62673;SDS011;62269;47.594;17.638;2023-04-03T04:40:44;7.60;;;6.72;;
62673;SDS011;62269;47.594;17.638;2023-04-03T04:41:31;7.18;;;6.47;;
62673;SDS011;62269;47.594;17.638;2023-04-03T04:42:18;7.75;;;6.90;;
62673;SDS011;62269;47.594;17.638;2023-04-03T04:43:05;8.07;;;7.30;;
62673;SDS011;62269;47.594;17.638;2023-04-03T04:43:52;7.85;;;7.05;;
62673;SDS011;62269;47.594;17.638;2023-04-03T04:44:39;7.47;;;6.75;;
62673;SDS011;62269;47.594;17.638;2023-04-03T04:45:26;8.05;;;7.25;;
62673;SDS011;62269;47.594;17.638;2023-04-03T04:46:14;7.97;;;7.18;;
62673;SDS011;62269;47.594;17.638;2023-04-03T04:47:01;8.23;;;7.43;;
62673;SDS011;62269;47.594;17.638;2023-04-03T04:47:48;8.48;;;7.37;;